Time;durP1;ratioP1;P1;durP2;ratioP2;P2;SDS_P1;SDS_P2;PMS_P1;PMS_P2;Temp;Humidity;BMP_temperature;BMP_pressure;BME280_temperature;BME280_humidity;BME280_pressure;Samples;Min_cycle;Max_cycle;Signal;HPM_P1;HPM_P2
2022/10/28 00:01:09;;;;;;;8.00;3.50;;;14.90;99.90;;;;;;488567;243;28424;-69
2022/10/28 00:03:10;;;;;;;3.97;3.00;;;14.90;99.90;;;;;;488542;242;28393;-70
2022/10/28 00:05:11;;;;;;;4.30;2.73;;;14.90;99.90;;;;;;488601;242;28351;-70
2022/10/28 00:07:13;;;;;;;8.30;2.90;;;15.00;99.90;;;;;;488539;242;28536;-70
2022/10/28 00:09:14;;;;;;;2.73;2.50;;;15.00;99.90;;;;;;488587;243;28465;-70
2022/10/28 00:11:15;;;;;;;6.90;2.60;;;15.10;99.90;;;;;;488571;243;28786;-70
2022/10/28 00:13:16;;;;;;;6.97;2.57;;;15.10;99.90;;;;;;488510;242;28543;-70
2022/10/28 00:15:18;;;;;;;7.43;2.97;;;15.20;99.90;;;;;;488575;242;29358;-70
2022/10/28 00:17:19;;;;;;;6.93;2.80;;;15.20;99.90;;;;;;488458;242;29196;-70
2022/10/28 00:19:20;;;;;;;5.90;2.93;;;15.20;99.90;;;;;;488558;242;29059;-70
2022/10/28 00:21:21;;;;;;;2.50;2.30;;;15.30;99.90;;;;;;488540;243;28282;-69
2022/10/28 00:23:23;;;;;;;5.30;3.13;;;15.30;99.90;;;;;;488520;242;28182;-69
2022/10/28 00:25:24;;;;;;;3.00;2.60;;;15.40;99.90;;;;;;488587;242;28811;-70
2022/10/28 00:27:25;;;;;;;4.30;2.57;;;15.40;99.90;;;;;;488494;242;28423;-69
2022/10/28 00:29:26;;;;;;;6.30;2.97;;;15.50;99.90;;;;;;488534;242;28355;-70
2022/10/28 00:31:28;;;;;;;5.37;2.83;;;15.60;99.90;;;;;;488550;243;28427;-70
2022/10/28 00:33:29;;;;;;;2.73;2.40;;;15.60;99.90;;;;;;488489;242;28319;-69
2022/10/28 00:35:30;;;;;;;4.50;3.10;;;15.60;99.90;;;;;;488575;242;28443;-71
2022/10/28 00:37:31;;;;;;;4.90;3.17;;;15.70;99.90;;;;;;488516;243;28775;-70
2022/10/28 00:39:33;;;;;;;4.50;2.80;;;15.80;99.90;;;;;;488568;243;28912;-70
2022/10/28 00:41:34;;;;;;;5.17;2.70;;;15.80;99.90;;;;;;488583;242;29244;-69
2022/10/28 00:43:35;;;;;;;3.20;2.90;;;15.80;99.90;;;;;;488510;242;28864;-69
2022/10/28 00:45:36;;;;;;;4.07;2.77;;;15.80;99.90;;;;;;488595;242;29271;-71
2022/10/28 00:47:38;;;;;;;11.03;3.33;;;16.00;99.90;;;;;;488529;243;28709;-71
2022/10/28 00:49:39;;;;;;;3.07;2.77;;;16.00;99.90;;;;;;488601;242;28765;-70
2022/10/28 00:51:40;;;;;;;4.97;2.63;;;15.90;99.90;;;;;;488591;243;28771;-69
2022/10/28 00:53:41;;;;;;;3.43;2.47;;;16.00;99.90;;;;;;488525;242;28722;-70
2022/10/28 00:55:43;;;;;;;5.10;3.10;;;16.00;99.90;;;;;;488602;242;28194;-71
2022/10/28 00:57:44;;;;;;;3.80;2.70;;;15.90;99.90;;;;;;488543;242;28704;-69
2022/10/28 00:59:45;;;;;;;4.53;2.67;;;15.90;99.90;;;;;;488555;242;28828;-69
2022/10/28 01:01:46;;;;;;;6.00;3.07;;;16.00;99.90;;;;;;489816;240;28752;-69
2022/10/28 01:03:48;;;;;;;3.37;2.23;;;16.20;99.90;;;;;;494510;240;29339;-69
2022/10/28 01:05:50;;;;;;;4.67;2.30;;;16.20;99.90;;;;;;490869;242;29253;-71
2022/10/28 01:07:50;;;;;;;5.40;2.80;;;16.20;99.90;;;;;;490799;242;29275;-69
2022/10/28 01:09:51;;;;;;;4.00;2.30;;;16.30;99.90;;;;;;490833;242;29209;-69
2022/10/28 01:11:53;;;;;;;3.67;2.60;;;16.20;99.90;;;;;;491836;240;28391;-69
2022/10/28 01:13:54;;;;;;;3.23;2.57;;;16.10;99.90;;;;;;489596;241;28707;-69
2022/10/28 01:15:55;;;;;;;4.03;2.63;;;16.10;99.90;;;;;;494024;241;28845;-69
2022/10/28 01:17:56;;;;;;;4.27;2.47;;;16.20;99.90;;;;;;494511;240;28848;-69
2022/10/28 01:19:58;;;;;;;8.17;2.90;;;16.20;99.90;;;;;;495026;240;28836;-70
2022/10/28 01:21:59;;;;;;;4.30;2.63;;;16.30;99.90;;;;;;492836;240;28745;-73
2022/10/28 01:24:00;;;;;;;3.93;2.63;;;16.40;99.90;;;;;;495066;240;28799;-69
2022/10/28 01:26:01;;;;;;;5.43;3.33;;;16.50;99.90;;;;;;495106;240;28830;-70
2022/10/28 01:28:03;;;;;;;3.20;2.47;;;16.40;99.90;;;;;;495107;240;29301;-69
2022/10/28 01:30:04;;;;;;;3.63;3.10;;;16.30;99.90;;;;;;495054;240;29339;-70
2022/10/28 01:32:05;;;;;;;2.70;2.50;;;16.30;99.90;;;;;;495063;240;29469;-73
2022/10/28 01:34:06;;;;;;;3.73;2.70;;;16.30;99.90;;;;;;495054;240;29300;-69
2022/10/28 01:36:08;;;;;;;6.60;2.20;;;16.30;99.90;;;;;;495115;240;28822;-70
2022/10/28 01:38:09;;;;;;;7.20;2.40;;;16.20;99.90;;;;;;495078;240;28800;-69
2022/10/28 01:40:10;;;;;;;6.87;2.90;;;16.30;99.90;;;;;;495043;240;28811;-69
2022/10/28 01:42:11;;;;;;;3.53;2.70;;;16.40;99.90;;;;;;494969;240;28958;-71
2022/10/28 01:44:13;;;;;;;3.33;2.63;;;16.40;99.90;;;;;;489460;237;28853;-70
2022/10/28 01:46:14;;;;;;;6.87;2.70;;;16.40;99.90;;;;;;493006;240;28937;-70
2022/10/28 01:48:15;;;;;;;4.20;2.50;;;16.40;99.90;;;;;;494514;240;28821;-69
2022/10/28 01:50:16;;;;;;;3.97;2.80;;;16.50;99.90;;;;;;495003;237;28833;-69
2022/10/28 01:52:18;;;;;;;6.93;2.90;;;16.40;99.90;;;;;;495066;240;28875;-70
2022/10/28 01:54:19;;;;;;;6.70;3.23;;;16.40;99.90;;;;;;495028;240;29393;-69
2022/10/28 01:56:20;;;;;;;13.37;3.50;;;16.40;99.90;;;;;;495071;240;29309;-69
2022/10/28 01:58:21;;;;;;;9.53;3.57;;;16.30;99.90;;;;;;495058;240;30147;-69
2022/10/28 02:00:23;;;;;;;5.53;2.80;;;16.30;99.90;;;;;;495058;240;28877;-70
2022/10/28 02:02:24;;;;;;;5.80;3.30;;;16.20;99.90;;;;;;495111;240;28863;-70
2022/10/28 02:04:25;;;;;;;7.43;2.80;;;16.20;99.90;;;;;;495050;240;28800;-69
2022/10/28 02:06:26;;;;;;;4.30;3.10;;;16.20;99.90;;;;;;495106;240;28857;-70
2022/10/28 02:08:28;;;;;;;6.53;2.80;;;16.30;99.90;;;;;;495065;240;28802;-69
2022/10/28 02:10:32;;;;;;;4.30;2.90;;;16.50;99.90;;;;;;495034;240;28799;-69
2022/10/28 02:12:30;;;;;;;4.50;2.70;;;16.50;99.90;;;;;;494852;240;28925;-70
2022/10/28 02:14:31;;;;;;;4.00;2.83;;;16.50;99.90;;;;;;494109;236;28777;-70
2022/10/28 02:16:33;;;;;;;7.83;2.50;;;16.50;99.90;;;;;;495099;240;28859;-69
2022/10/28 02:18:34;;;;;;;7.30;3.27;;;16.50;99.90;;;;;;495085;240;30150;-69
2022/10/28 02:20:35;;;;;;;3.53;2.77;;;16.70;99.90;;;;;;494622;240;29283;-69
2022/10/28 02:22:36;;;;;;;4.03;2.50;;;16.60;99.90;;;;;;494003;241;29403;-71
2022/10/28 02:24:38;;;;;;;6.10;2.87;;;16.60;99.90;;;;;;493989;241;28790;-69
2022/10/28 02:26:39;;;;;;;2.90;2.60;;;16.50;99.90;;;;;;493975;241;28842;-70
2022/10/28 02:28:40;;;;;;;5.77;3.20;;;16.50;99.90;;;;;;494002;241;28798;-69
2022/10/28 02:30:41;;;;;;;2.53;2.33;;;16.50;99.90;;;;;;493939;241;28791;-70
2022/10/28 02:32:43;;;;;;;3.30;2.30;;;16.40;99.90;;;;;;493996;241;28902;-71
2022/10/28 02:34:44;;;;;;;3.03;2.73;;;16.40;99.90;;;;;;493995;241;28904;-69
2022/10/28 02:36:45;;;;;;;3.13;2.63;;;16.50;99.90;;;;;;493942;241;28829;-70
2022/10/28 02:38:46;;;;;;;2.90;2.60;;;16.50;99.90;;;;;;493985;241;28830;-70
2022/10/28 02:40:48;;;;;;;2.70;2.20;;;16.60;99.90;;;;;;493938;241;28794;-69
2022/10/28 02:42:49;;;;;;;4.13;2.77;;;16.70;99.90;;;;;;493978;241;29308;-70
2022/10/28 02:44:50;;;;;;;4.00;2.47;;;16.70;99.90;;;;;;493986;241;29359;-69
2022/10/28 02:46:51;;;;;;;5.80;2.77;;;16.70;99.90;;;;;;493899;241;29381;-69
2022/10/28 02:48:53;;;;;;;4.37;2.60;;;16.60;99.90;;;;;;493896;241;28840;-69
2022/10/28 02:50:54;;;;;;;3.43;2.20;;;16.60;99.90;;;;;;493959;241;28818;-70
2022/10/28 02:52:55;;;;;;;3.00;2.47;;;16.50;99.90;;;;;;493986;241;28897;-69
2022/10/28 02:54:57;;;;;;;4.80;2.50;;;16.60;99.90;;;;;;494015;241;28917;-69
2022/10/28 02:56:58;;;;;;;2.27;2.10;;;16.60;99.90;;;;;;493948;241;28837;-70
2022/10/28 02:58:59;;;;;;;2.27;2.07;;;16.50;99.90;;;;;;493965;241;29246;-69
2022/10/28 03:01:00;;;;;;;2.67;2.10;;;16.50;99.90;;;;;;493983;241;29357;-70
2022/10/28 03:03:02;;;;;;;3.03;2.43;;;16.50;99.90;;;;;;494013;241;29313;-71
2022/10/28 03:05:03;;;;;;;5.10;2.77;;;16.50;99.90;;;;;;494012;241;28853;-69
2022/10/28 03:07:04;;;;;;;4.20;2.20;;;16.50;99.90;;;;;;493944;241;28905;-69
2022/10/28 03:09:05;;;;;;;5.03;2.40;;;16.50;99.90;;;;;;493951;241;28802;-69
2022/10/28 03:11:07;;;;;;;3.20;2.17;;;16.40;99.90;;;;;;493869;241;28924;-69
2022/10/28 03:13:08;;;;;;;3.67;2.33;;;16.40;99.90;;;;;;493840;241;28940;-69
2022/10/28 03:15:09;;;;;;;4.63;2.40;;;16.40;99.90;;;;;;493861;241;28917;-69
2022/10/28 03:17:10;;;;;;;2.70;2.00;;;16.20;99.90;;;;;;493750;241;28826;-69
2022/10/28 03:19:12;;;;;;;7.20;2.30;;;16.10;99.90;;;;;;493988;241;29201;-71
2022/10/28 03:21:13;;;;;;;4.50;2.27;;;16.00;99.90;;;;;;493950;241;28973;-69
2022/10/28 03:23:14;;;;;;;4.63;3.00;;;15.90;99.90;;;;;;494015;241;28930;-70
2022/10/28 03:25:15;;;;;;;2.80;2.57;;;15.80;99.90;;;;;;494003;241;29349;-69
2022/10/28 03:27:17;;;;;;;5.27;2.80;;;15.80;99.90;;;;;;493958;241;29396;-69
2022/10/28 03:29:18;;;;;;;4.93;2.00;;;15.70;99.90;;;;;;493983;241;29523;-72
2022/10/28 03:31:19;;;;;;;7.87;3.60;;;15.60;99.90;;;;;;493943;241;29264;-69
2022/10/28 03:33:20;;;;;;;3.00;2.40;;;15.50;99.90;;;;;;494016;241;28838;-70
2022/10/28 03:35:22;;;;;;;3.50;2.50;;;15.40;99.90;;;;;;494023;241;28795;-69
2022/10/28 03:37:23;;;;;;;7.13;2.70;;;15.40;99.90;;;;;;493970;241;28953;-70
2022/10/28 03:39:24;;;;;;;4.40;2.60;;;15.30;99.90;;;;;;494006;241;28897;-71
2022/10/28 03:41:25;;;;;;;4.10;2.50;;;15.30;99.90;;;;;;493977;241;28996;-70
2022/10/28 03:43:27;;;;;;;6.77;2.83;;;15.40;99.90;;;;;;493994;241;29014;-71
2022/10/28 03:45:28;;;;;;;11.77;3.20;;;15.50;99.90;;;;;;493995;241;29348;-69
2022/10/28 03:47:29;;;;;;;4.97;3.10;;;15.60;99.90;;;;;;493917;241;28843;-69
2022/10/28 03:49:30;;;;;;;4.37;3.10;;;15.70;99.90;;;;;;493991;241;28847;-70
2022/10/28 03:51:32;;;;;;;6.20;2.40;;;15.80;99.90;;;;;;494024;241;28796;-70
2022/10/28 03:53:33;;;;;;;2.80;2.60;;;15.90;99.90;;;;;;493960;241;28850;-70
2022/10/28 03:55:34;;;;;;;4.93;2.70;;;16.00;99.90;;;;;;494033;241;28529;-69
2022/10/28 03:57:35;;;;;;;3.00;2.63;;;16.10;99.90;;;;;;493939;241;28955;-69
2022/10/28 03:59:37;;;;;;;4.77;2.80;;;16.10;99.90;;;;;;494035;241;28854;-71
2022/10/28 04:01:38;;;;;;;2.63;2.43;;;16.30;99.90;;;;;;494015;241;28798;-69
2022/10/28 04:03:39;;;;;;;7.20;2.70;;;16.30;99.90;;;;;;493987;241;28886;-69
2022/10/28 04:05:41;;;;;;;2.90;2.40;;;16.30;99.90;;;;;;494003;241;28885;-70
2022/10/28 04:07:42;;;;;;;7.63;2.67;;;16.40;99.90;;;;;;493957;241;29252;-70
2022/10/28 04:09:43;;;;;;;3.80;2.40;;;16.50;99.90;;;;;;494029;241;29331;-71
2022/10/28 04:11:44;;;;;;;3.90;2.23;;;16.50;99.90;;;;;;493999;241;29311;-69
2022/10/28 04:13:46;;;;;;;4.70;2.80;;;16.50;99.90;;;;;;493957;241;29392;-69
2022/10/28 04:15:47;;;;;;;6.10;3.60;;;16.40;99.90;;;;;;494021;241;28927;-69
2022/10/28 04:17:48;;;;;;;4.10;2.77;;;16.40;99.90;;;;;;492010;240;28779;-70
2022/10/28 04:19:49;;;;;;;3.03;2.67;;;16.40;99.90;;;;;;492473;240;28727;-71
2022/10/28 04:21:51;;;;;;;7.63;2.67;;;16.40;99.90;;;;;;494066;241;28784;-70
2022/10/28 04:23:52;;;;;;;7.20;3.13;;;16.40;99.90;;;;;;494042;241;28840;-69
2022/10/28 04:25:53;;;;;;;4.40;3.00;;;16.30;99.90;;;;;;494053;241;28837;-69
2022/10/28 04:27:54;;;;;;;3.27;2.97;;;16.40;99.90;;;;;;493927;241;28794;-69
2022/10/28 04:29:56;;;;;;;4.73;3.10;;;16.30;99.90;;;;;;494042;241;28916;-70
2022/10/28 04:31:58;;;;;;;5.73;3.03;;;16.40;99.90;;;;;;494058;241;29308;-69
2022/10/28 04:33:58;;;;;;;3.50;2.43;;;16.30;99.90;;;;;;493967;241;29291;-69
2022/10/28 04:35:59;;;;;;;3.43;2.77;;;16.40;99.90;;;;;;494041;241;29441;-69
2022/10/28 04:38:01;;;;;;;8.47;2.80;;;16.40;99.90;;;;;;493978;241;29417;-69
2022/10/28 04:40:02;;;;;;;3.60;3.00;;;16.40;99.90;;;;;;494034;241;28933;-70
2022/10/28 04:42:03;;;;;;;4.10;3.10;;;16.40;99.90;;;;;;494051;241;28785;-69
2022/10/28 04:44:04;;;;;;;3.00;2.70;;;16.40;99.90;;;;;;494016;241;28820;-69
2022/10/28 04:46:06;;;;;;;2.80;2.60;;;16.30;99.90;;;;;;494074;241;28840;-71
2022/10/28 04:48:07;;;;;;;3.57;2.83;;;16.40;99.90;;;;;;493267;240;28864;-69
2022/10/28 04:50:08;;;;;;;2.90;2.57;;;16.40;99.90;;;;;;493997;240;28549;-69
2022/10/28 04:52:09;;;;;;;4.00;2.63;;;16.30;99.90;;;;;;493276;240;28807;-69
2022/10/28 04:54:11;;;;;;;3.93;2.60;;;16.30;99.90;;;;;;495050;240;28927;-69
2022/10/28 04:56:12;;;;;;;5.20;2.90;;;16.40;99.90;;;;;;495120;240;28835;-71
2022/10/28 04:58:13;;;;;;;3.97;3.03;;;16.30;99.90;;;;;;495025;240;29811;-69
2022/10/28 05:00:14;;;;;;;3.20;2.27;;;16.40;99.90;;;;;;495086;240;29387;-70
2022/10/28 05:02:16;;;;;;;5.10;2.57;;;16.40;99.90;;;;;;495120;240;29237;-69
2022/10/28 05:04:17;;;;;;;4.23;2.67;;;16.30;99.90;;;;;;495070;240;28834;-69
2022/10/28 05:06:18;;;;;;;3.17;2.83;;;16.50;99.90;;;;;;495101;240;28923;-71
2022/10/28 05:08:19;;;;;;;4.73;2.70;;;16.50;99.90;;;;;;495049;240;28804;-69
2022/10/28 05:10:21;;;;;;;7.77;3.23;;;16.50;99.90;;;;;;495082;240;28838;-69
2022/10/28 05:12:22;;;;;;;4.23;2.60;;;16.60;99.90;;;;;;495089;240;28891;-69
2022/10/28 05:14:23;;;;;;;4.77;2.40;;;16.60;99.90;;;;;;494659;240;28817;-69
2022/10/28 05:16:24;;;;;;;5.73;2.80;;;16.60;99.90;;;;;;492845;240;28910;-72
2022/10/28 05:18:26;;;;;;;4.37;2.47;;;16.60;99.90;;;;;;494002;241;28888;-69
2022/10/28 05:20:27;;;;;;;4.97;2.93;;;16.60;99.90;;;;;;494046;241;28835;-70
2022/10/28 05:22:28;;;;;;;3.83;3.03;;;16.70;99.90;;;;;;493993;241;29475;-69
2022/10/28 05:24:29;;;;;;;5.27;3.23;;;16.70;99.90;;;;;;493944;241;29252;-70
2022/10/28 05:26:31;;;;;;;3.07;2.70;;;16.70;99.90;;;;;;494007;241;29433;-70
2022/10/28 05:28:32;;;;;;;4.53;2.50;;;16.70;99.90;;;;;;494009;241;29283;-71
2022/10/28 05:30:33;;;;;;;5.97;2.93;;;16.70;99.90;;;;;;493961;241;28980;-71
2022/10/28 05:32:34;;;;;;;3.73;2.90;;;16.80;99.90;;;;;;494014;241;28845;-69
2022/10/28 05:34:36;;;;;;;4.93;3.30;;;16.80;99.90;;;;;;493954;241;28787;-69
2022/10/28 05:36:37;;;;;;;4.63;2.67;;;16.80;99.90;;;;;;493996;241;28933;-71
2022/10/28 05:38:39;;;;;;;9.40;2.90;;;16.80;99.90;;;;;;494014;241;28814;-69
2022/10/28 05:40:39;;;;;;;3.40;3.10;;;16.80;99.90;;;;;;493986;241;28928;-69
2022/10/28 05:42:41;;;;;;;4.17;3.10;;;16.70;99.90;;;;;;494005;241;28790;-69
2022/10/28 05:44:42;;;;;;;3.80;2.90;;;16.70;99.90;;;;;;493961;241;28921;-69
2022/10/28 05:46:43;;;;;;;2.90;2.70;;;16.70;99.90;;;;;;493222;240;28828;-71
2022/10/28 05:48:45;;;;;;;3.40;2.60;;;16.70;99.90;;;;;;494582;240;28895;-70
2022/10/28 05:50:46;;;;;;;2.80;2.50;;;16.70;99.90;;;;;;495031;240;28862;-70
2022/10/28 05:52:47;;;;;;;5.97;2.80;;;16.60;99.90;;;;;;495098;240;30032;-70
2022/10/28 05:54:48;;;;;;;2.90;2.70;;;16.60;99.90;;;;;;495066;240;29261;-70
2022/10/28 05:56:50;;;;;;;5.10;2.83;;;16.50;99.90;;;;;;495121;240;29326;-70
2022/10/28 05:58:51;;;;;;;3.20;2.80;;;16.40;99.90;;;;;;491634;240;28728;-69
2022/10/28 06:00:52;;;;;;;4.87;3.00;;;16.40;99.90;;;;;;485254;244;28882;-70
2022/10/28 06:02:53;;;;;;;2.97;2.77;;;16.40;99.90;;;;;;485310;244;28842;-69
2022/10/28 06:04:55;;;;;;;3.30;2.50;;;16.40;99.90;;;;;;485256;245;28767;-69
2022/10/28 06:06:56;;;;;;;3.40;3.10;;;16.30;99.90;;;;;;485313;244;28841;-70
2022/10/28 06:08:57;;;;;;;3.77;3.57;;;16.20;99.90;;;;;;485262;244;28930;-69
2022/10/28 06:11:00;;;;;;;3.17;2.90;;;16.20;99.90;;;;;;485246;244;28824;-69
2022/10/28 06:13:00;;;;;;;5.40;3.13;;;16.20;99.90;;;;;;485186;245;28895;-70
2022/10/28 06:15:01;;;;;;;2.23;2.13;;;16.20;99.90;;;;;;485224;245;28828;-69
2022/10/28 06:17:02;;;;;;;12.20;4.27;;;16.20;99.90;;;;;;484617;241;29500;-72
2022/10/28 06:19:03;;;;;;;4.93;3.70;;;16.20;99.90;;;;;;494006;241;29401;-69
2022/10/28 06:21:05;;;;;;;3.53;2.60;;;16.20;99.90;;;;;;493419;240;29306;-69
2022/10/28 06:23:06;;;;;;;4.07;2.77;;;16.10;99.90;;;;;;493660;237;28752;-69
2022/10/28 06:25:07;;;;;;;6.90;2.60;;;16.20;99.90;;;;;;494416;239;28772;-69
2022/10/28 06:27:08;;;;;;;3.50;2.83;;;16.20;99.90;;;;;;494420;239;28809;-71
2022/10/28 06:29:10;;;;;;;3.23;2.90;;;16.10;99.90;;;;;;490863;239;28803;-69
2022/10/28 06:31:11;;;;;;;5.93;3.00;;;16.20;99.90;;;;;;481441;237;28881;-69
2022/10/28 06:33:12;;;;;;;3.77;2.90;;;16.20;99.90;;;;;;473006;246;30322;-70
2022/10/28 06:35:14;;;;;;;5.53;3.20;;;16.20;99.90;;;;;;466612;249;29473;-70
2022/10/28 06:37:16;;;;;;;3.93;2.80;;;16.20;99.90;;;;;;469856;250;28796;-71
2022/10/28 06:39:17;;;;;;;2.83;2.63;;;16.30;99.90;;;;;;470294;251;28860;-70
2022/10/28 06:41:18;;;;;;;3.17;2.87;;;16.30;99.90;;;;;;476334;243;30249;-70
2022/10/28 06:43:20;;;;;;;7.93;3.10;;;16.40;99.90;;;;;;479861;247;29389;-70
2022/10/28 06:45:21;;;;;;;4.53;3.00;;;16.50;99.90;;;;;;471833;248;29466;-72
2022/10/28 06:47:22;;;;;;;4.20;3.00;;;16.60;99.90;;;;;;483712;245;28981;-70
2022/10/28 06:49:23;;;;;;;4.60;3.03;;;16.60;99.90;;;;;;483674;243;28982;-71
2022/10/28 06:51:25;;;;;;;3.20;2.90;;;16.60;99.90;;;;;;484005;243;29373;-72
2022/10/28 06:53:26;;;;;;;3.77;3.13;;;16.60;99.90;;;;;;484153;244;29292;-70
2022/10/28 06:55:27;;;;;;;5.53;3.50;;;16.80;99.90;;;;;;484182;243;28885;-69
2022/10/28 06:57:29;;;;;;;5.63;3.30;;;16.90;99.90;;;;;;484094;243;28827;-69
2022/10/28 06:59:30;;;;;;;3.20;2.70;;;17.00;99.90;;;;;;484145;243;28881;-69
2022/10/28 07:01:31;;;;;;;5.10;2.67;;;17.00;99.90;;;;;;483758;242;29071;-70
2022/10/28 07:03:33;;;;;;;5.07;3.10;;;17.10;99.90;;;;;;484243;245;29354;-69
2022/10/28 07:05:34;;;;;;;4.37;3.13;;;17.20;99.90;;;;;;484065;241;28840;-70
2022/10/28 07:07:38;;;;;;;3.60;3.30;;;17.30;99.90;;;;;;484034;245;28886;-68
2022/10/28 07:09:38;;;;;;;3.97;3.57;;;17.30;99.90;;;;;;483198;246;28854;-69
2022/10/28 07:11:38;;;;;;;4.07;2.93;;;17.30;99.90;;;;;;484330;245;28990;-69
2022/10/28 07:13:39;;;;;;;4.13;2.70;;;17.30;99.90;;;;;;483939;246;28850;-70
2022/10/28 07:15:40;;;;;;;5.43;2.83;;;17.40;99.90;;;;;;484409;245;28877;-68
2022/10/28 07:17:41;;;;;;;3.17;2.97;;;17.40;99.90;;;;;;483912;246;29303;-70
2022/10/28 07:19:43;;;;;;;3.20;2.90;;;17.40;99.90;;;;;;484437;245;29289;-68
2022/10/28 07:21:44;;;;;;;6.57;3.20;;;17.40;99.90;;;;;;483824;246;29428;-69
2022/10/28 07:23:45;;;;;;;5.80;3.23;;;17.50;99.90;;;;;;484458;245;29426;-69
2022/10/28 07:25:46;;;;;;;3.67;3.30;;;17.70;99.90;;;;;;477320;245;28824;-69
2022/10/28 07:27:48;;;;;;;5.10;3.20;;;17.80;99.90;;;;;;492993;241;28747;-71
2022/10/28 07:29:49;;;;;;;13.93;3.87;;;17.90;99.90;;;;;;493025;241;29258;-69
2022/10/28 07:31:50;;;;;;;6.67;3.67;;;18.00;99.90;;;;;;488596;241;29252;-70
2022/10/28 07:33:53;;;;;;;8.60;3.57;;;17.90;99.90;;;;;;489157;241;28849;-71
2022/10/28 07:35:54;;;;;;;4.87;3.50;;;17.90;99.90;;;;;;482572;246;29286;-71
2022/10/28 07:37:55;;;;;;;4.63;2.90;;;18.00;99.90;;;;;;482797;246;28994;-71
2022/10/28 07:39:56;;;;;;;5.30;3.20;;;18.00;99.90;;;;;;482842;246;29364;-71
2022/10/28 07:41:59;;;;;;;3.47;2.70;;;18.10;99.90;;;;;;461817;243;29598;-70
2022/10/28 07:43:59;;;;;;;4.23;3.20;;;18.00;99.90;;;;;;460388;253;29850;-69
2022/10/28 07:46:00;;;;;;;3.97;3.07;;;18.00;99.90;;;;;;453041;258;29023;-72
2022/10/28 07:48:01;;;;;;;9.43;3.57;;;18.10;99.90;;;;;;459278;257;28921;-70
2022/10/28 07:50:03;;;;;;;3.60;2.90;;;18.10;99.90;;;;;;459468;259;28939;-71
2022/10/28 07:52:04;;;;;;;3.60;3.17;;;18.10;99.90;;;;;;459419;259;28868;-70
2022/10/28 07:54:05;;;;;;;5.60;2.93;;;18.10;99.90;;;;;;459419;258;28992;-70
2022/10/28 07:56:08;;;;;;;6.00;2.70;;;18.10;99.90;;;;;;459430;259;28900;-72
2022/10/28 07:58:08;;;;;;;7.43;2.93;;;18.10;99.90;;;;;;459300;259;28956;-70
2022/10/28 08:00:09;;;;;;;3.37;2.40;;;18.20;99.90;;;;;;459453;259;29090;-71
2022/10/28 08:02:10;;;;;;;3.83;2.57;;;18.20;99.90;;;;;;459472;259;29022;-70
2022/10/28 08:04:12;;;;;;;3.30;3.00;;;18.20;99.90;;;;;;459469;259;29027;-70
2022/10/28 08:06:16;;;;;;;3.70;2.83;;;18.30;99.90;;;;;;459474;259;29050;-72
2022/10/28 08:08:14;;;;;;;4.00;3.07;;;18.30;99.90;;;;;;459307;259;29428;-70
2022/10/28 08:10:16;;;;;;;4.00;2.43;;;18.40;99.90;;;;;;459402;259;28883;-70
2022/10/28 08:12:17;;;;;;;5.47;2.70;;;18.40;99.90;;;;;;459447;259;29028;-72
2022/10/28 08:14:18;;;;;;;4.57;2.23;;;18.40;99.90;;;;;;459463;258;29428;-70
2022/10/28 08:16:20;;;;;;;3.17;2.83;;;18.40;99.90;;;;;;459251;258;29808;-71
2022/10/28 08:18:21;;;;;;;6.23;2.60;;;18.30;99.90;;;;;;459447;259;28999;-72
2022/10/28 08:22:43;;;;;;;4.73;2.47;;;18.30;99.90;;;;;;468940;252;30249;-69
2022/10/28 08:24:44;;;;;;;5.77;2.47;;;18.30;99.90;;;;;;480161;247;29443;-71
2022/10/28 08:26:45;;;;;;;3.47;2.30;;;18.40;99.90;;;;;;479368;246;28886;-71
2022/10/28 08:28:47;;;;;;;4.33;2.30;;;18.30;99.90;;;;;;480651;246;28865;-70
2022/10/28 08:30:48;;;;;;;5.83;2.50;;;18.30;99.90;;;;;;478794;247;28858;-70
2022/10/28 08:32:49;;;;;;;3.33;2.30;;;18.40;99.90;;;;;;480728;246;28986;-70
2022/10/28 08:34:50;;;;;;;5.40;3.10;;;18.30;99.90;;;;;;480696;246;28935;-70
2022/10/28 08:36:52;;;;;;;4.00;2.47;;;18.30;99.90;;;;;;480743;246;28908;-70
2022/10/28 08:38:53;;;;;;;5.70;2.80;;;18.30;99.90;;;;;;479716;245;28793;-70
2022/10/28 08:40:54;;;;;;;4.20;2.73;;;18.20;99.90;;;;;;487870;243;28831;-70
2022/10/28 08:42:56;;;;;;;5.53;2.30;;;18.20;99.90;;;;;;485883;244;28767;-72
2022/10/28 08:44:57;;;;;;;2.70;2.20;;;18.30;99.90;;;;;;477920;248;29260;-71
2022/10/28 08:46:58;;;;;;;9.20;2.30;;;18.30;99.90;;;;;;461373;250;28960;-70
2022/10/28 08:48:59;;;;;;;5.13;2.47;;;18.40;99.90;;;;;;480622;241;29307;-70
2022/10/28 08:51:01;;;;;;;5.93;2.50;;;18.40;99.90;;;;;;480672;246;29427;-70
2022/10/28 08:53:02;;;;;;;4.33;2.50;;;18.50;99.90;;;;;;480569;246;29340;-72
2022/10/28 08:55:03;;;;;;;3.50;2.20;;;18.60;99.90;;;;;;471675;252;28810;-70
2022/10/28 08:57:04;;;;;;;2.90;2.50;;;18.70;99.90;;;;;;480723;243;28863;-70
2022/10/28 08:59:06;;;;;;;3.73;2.53;;;18.80;99.90;;;;;;480536;246;29319;-70
2022/10/28 09:01:07;;;;;;;2.93;2.60;;;18.80;99.90;;;;;;480681;246;29273;-70
2022/10/28 09:03:08;;;;;;;3.67;1.97;;;18.90;99.90;;;;;;478797;247;29367;-71
2022/10/28 09:05:09;;;;;;;2.73;2.10;;;18.90;99.90;;;;;;480562;246;28828;-70
2022/10/28 09:07:11;;;;;;;8.83;2.27;;;18.90;99.90;;;;;;480619;246;28903;-72
2022/10/28 09:09:12;;;;;;;2.50;2.00;;;18.90;99.90;;;;;;480647;246;28888;-69
2022/10/28 09:11:13;;;;;;;6.47;2.50;;;18.80;99.90;;;;;;477507;241;28791;-70
2022/10/28 09:13:14;;;;;;;4.33;2.30;;;18.90;99.90;;;;;;471219;247;29326;-73
2022/10/28 09:15:16;;;;;;;2.83;2.20;;;18.90;99.90;;;;;;476959;247;29242;-70
2022/10/28 09:17:18;;;;;;;6.63;2.53;;;18.80;99.90;;;;;;476526;249;29250;-69
2022/10/28 09:19:18;;;;;;;4.90;2.03;;;18.90;99.90;;;;;;476909;245;31019;-69
2022/10/28 09:21:21;;;;;;;4.77;2.33;;;18.90;99.90;;;;;;485756;235;28816;-71
2022/10/28 09:23:21;;;;;;;6.80;2.50;;;19.00;99.90;;;;;;488528;238;28908;-71
2022/10/28 09:25:22;;;;;;;5.20;2.57;;;19.10;99.90;;;;;;486389;244;29458;-72
2022/10/28 09:27:23;;;;;;;3.43;2.23;;;19.10;99.90;;;;;;486275;244;29533;-70
2022/10/28 09:29:25;;;;;;;7.00;2.40;;;19.10;99.90;;;;;;482702;244;36800;-72
2022/10/28 09:31:27;;;;;;;7.83;2.70;;;19.20;99.90;;;;;;486728;244;29369;-70
2022/10/28 09:33:27;;;;;;;4.10;2.27;;;19.20;99.90;;;;;;486825;244;28852;-70
2022/10/28 09:35:28;;;;;;;5.90;2.40;;;19.20;99.90;;;;;;486913;241;28837;-71
2022/10/28 09:37:30;;;;;;;2.87;2.03;;;19.30;99.90;;;;;;486947;244;28842;-71
2022/10/28 09:39:31;;;;;;;2.83;2.33;;;19.30;99.90;;;;;;486954;244;28917;-70
2022/10/28 09:41:32;;;;;;;3.60;2.73;;;19.40;99.90;;;;;;486846;244;28916;-70
2022/10/28 09:43:36;;;;;;;8.63;2.33;;;19.40;99.90;;;;;;486990;240;28847;-70
2022/10/28 09:45:35;;;;;;;3.17;2.40;;;19.50;99.90;;;;;;486763;244;28815;-70
2022/10/28 09:47:36;;;;;;;6.13;2.30;;;19.70;99.90;;;;;;486988;244;28841;-70
2022/10/28 09:49:38;;;;;;;3.53;2.30;;;19.70;99.90;;;;;;486975;244;30020;-71
2022/10/28 09:51:42;;;;;;;2.67;2.47;;;19.80;99.90;;;;;;486694;244;29287;-70
2022/10/28 09:53:40;;;;;;;3.37;2.40;;;19.90;99.90;;;;;;486660;244;29413;-70
2022/10/28 09:55:41;;;;;;;2.67;2.30;;;19.90;99.90;;;;;;486979;244;29284;-70
2022/10/28 09:57:43;;;;;;;6.27;2.63;;;19.90;99.90;;;;;;486859;244;28832;-71
2022/10/28 09:59:43;;;;;;;8.90;2.53;;;20.10;99.90;;;;;;486948;244;28887;-70
2022/10/28 10:01:46;;;;;;;6.00;2.40;;;20.20;99.90;;;;;;486925;244;28849;-70
2022/10/28 10:03:46;;;;;;;4.63;2.57;;;20.10;99.90;;;;;;486855;244;28959;-70
2022/10/28 10:05:47;;;;;;;4.10;2.27;;;20.10;99.90;;;;;;486945;244;28943;-70
2022/10/28 10:07:48;;;;;;;5.27;3.17;;;20.10;99.90;;;;;;486920;244;28839;-69
2022/10/28 10:09:50;;;;;;;3.43;2.13;;;20.20;99.90;;;;;;486964;244;28966;-72
2022/10/28 10:11:51;;;;;;;5.53;2.30;;;20.10;99.90;;;;;;486948;244;28892;-70
2022/10/28 10:13:52;;;;;;;2.80;1.90;;;20.10;99.90;;;;;;486890;244;28867;-70
2022/10/28 10:15:53;;;;;;;3.10;2.03;;;20.30;99.90;;;;;;486927;244;29245;-70
2022/10/28 10:17:55;;;;;;;4.43;2.60;;;20.40;99.90;;;;;;486921;244;29271;-70
2022/10/28 10:19:56;;;;;;;4.00;2.00;;;20.50;99.90;;;;;;486972;244;29315;-71
2022/10/28 10:21:57;;;;;;;8.60;2.30;;;20.60;99.90;;;;;;486803;244;28913;-70
2022/10/28 10:23:59;;;;;;;6.53;2.50;;;20.60;99.90;;;;;;486381;244;28843;-70
2022/10/28 10:26:00;;;;;;;4.27;2.20;;;20.70;99.90;;;;;;486356;244;28815;-70
2022/10/28 10:28:01;;;;;;;6.30;2.17;;;20.90;99.90;;;;;;486409;244;29302;-71
2022/10/28 10:30:02;;;;;;;2.73;2.40;;;21.00;99.90;;;;;;486369;244;29335;-69
2022/10/28 10:32:04;;;;;;;8.57;2.50;;;21.00;99.90;;;;;;486391;244;29292;-70